sensor_id;sensor_type;location;lat;lon;timestamp;temperature;humidity
5264;DHT22;2654;47.958;13.614;2022-07-05T00:01:55;19.80;1.00
5264;DHT22;2654;47.958;13.614;2022-07-05T00:04:25;19.80;1.00
5264;DHT22;2654;47.958;13.614;2022-07-05T00:06:53;19.70;1.00
5264;DHT22;2654;47.958;13.614;2022-07-05T00:09:49;19.50;1.00
5264;DHT22;2654;47.958;13.614;2022-07-05T00:12:18;19.30;1.00
5264;DHT22;2654;47.958;13.614;2022-07-05T00:14:54;19.30;1.00
5264;DHT22;2654;47.958;13.614;2022-07-05T00:17:31;19.30;1.00
5264;DHT22;2654;47.958;13.614;2022-07-05T00:19:59;19.40;1.00
5264;DHT22;2654;47.958;13.614;2022-07-05T00:22:26;19.20;1.00
5264;DHT22;2654;47.958;13.614;2022-07-05T00:24:58;19.10;1.00
5264;DHT22;2654;47.958;13.614;2022-07-05T00:27:27;19.00;1.00
5264;DHT22;2654;47.958;13.614;2022-07-05T00:29:55;19.00;1.00
5264;DHT22;2654;47.958;13.614;2022-07-05T00:32:32;19.00;1.00
5264;DHT22;2654;47.958;13.614;2022-07-05T00:35:02;19.00;1.00
5264;DHT22;2654;47.958;13.614;2022-07-05T00:37:29;19.10;1.00
5264;DHT22;2654;47.958;13.614;2022-07-05T00:40:06;19.10;1.00
5264;DHT22;2654;47.958;13.614;2022-07-05T00:42:38;19.10;1.00
5264;DHT22;2654;47.958;13.614;2022-07-05T00:45:14;19.10;1.00
5264;DHT22;2654;47.958;13.614;2022-07-05T00:47:46;19.10;1.00
5264;DHT22;2654;47.958;13.614;2022-07-05T00:50:14;19.20;1.00
5264;DHT22;2654;47.958;13.614;2022-07-05T00:52:59;19.20;1.00
5264;DHT22;2654;47.958;13.614;2022-07-05T00:55:27;19.30;1.00
5264;DHT22;2654;47.958;13.614;2022-07-05T00:58:03;19.20;1.00
5264;DHT22;2654;47.958;13.614;2022-07-05T01:00:49;19.20;1.00
5264;DHT22;2654;47.958;13.614;2022-07-05T01:03:25;19.20;1.00
5264;DHT22;2654;47.958;13.614;2022-07-05T01:05:54;19.30;1.00
5264;DHT22;2654;47.958;13.614;2022-07-05T01:08:22;19.20;1.00
5264;DHT22;2654;47.958;13.614;2022-07-05T01:10:59;19.20;1.00
5264;DHT22;2654;47.958;13.614;2022-07-05T01:13:38;19.30;1.00
5264;DHT22;2654;47.958;13.614;2022-07-05T01:16:22;19.30;1.00
5264;DHT22;2654;47.958;13.614;2022-07-05T01:18:59;19.40;1.00
5264;DHT22;2654;47.958;13.614;2022-07-05T01:21:38;19.30;1.00
5264;DHT22;2654;47.958;13.614;2022-07-05T01:24:10;19.50;1.00
5264;DHT22;2654;47.958;13.614;2022-07-05T01:26:41;19.40;1.00
5264;DHT22;2654;47.958;13.614;2022-07-05T01:29:18;19.40;99.90
5264;DHT22;2654;47.958;13.614;2022-07-05T01:31:52;19.40;99.90
5264;DHT22;2654;47.958;13.614;2022-07-05T01:34:20;19.30;99.90
5264;DHT22;2654;47.958;13.614;2022-07-05T01:36:50;19.30;99.90
5264;DHT22;2654;47.958;13.614;2022-07-05T01:39:19;19.20;99.90
5264;DHT22;2654;47.958;13.614;2022-07-05T01:41:53;19.10;99.90
5264;DHT22;2654;47.958;13.614;2022-07-05T01:44:22;19.10;99.90
5264;DHT22;2654;47.958;13.614;2022-07-05T01:46:53;19.10;99.90
5264;DHT22;2654;47.958;13.614;2022-07-05T01:49:24;19.10;99.90
5264;DHT22;2654;47.958;13.614;2022-07-05T01:51:57;19.00;99.90
5264;DHT22;2654;47.958;13.614;2022-07-05T01:54:28;18.80;99.90
5264;DHT22;2654;47.958;13.614;2022-07-05T01:57:02;18.70;99.90
5264;DHT22;2654;47.958;13.614;2022-07-05T01:59:37;18.80;99.90
5264;DHT22;2654;47.958;13.614;2022-07-05T02:02:15;18.60;99.90
5264;DHT22;2654;47.958;13.614;2022-07-05T02:04:44;18.60;99.90
5264;DHT22;2654;47.958;13.614;2022-07-05T02:07:12;18.50;99.90
5264;DHT22;2654;47.958;13.614;2022-07-05T02:09:48;18.50;99.90
5264;DHT22;2654;47.958;13.614;2022-07-05T02:12:17;18.50;99.90
5264;DHT22;2654;47.958;13.614;2022-07-05T02:15:03;18.50;99.90
5264;DHT22;2654;47.958;13.614;2022-07-05T02:17:30;18.50;99.90
5264;DHT22;2654;47.958;13.614;2022-07-05T02:19:59;18.50;99.90
5264;DHT22;2654;47.958;13.614;2022-07-05T02:22:27;18.70;99.90
5264;DHT22;2654;47.958;13.614;2022-07-05T02:24:56;18.70;99.90
5264;DHT22;2654;47.958;13.614;2022-07-05T02:27:30;18.70;99.90
5264;DHT22;2654;47.958;13.614;2022-07-05T02:29:58;18.70;99.90
5264;DHT22;2654;47.958;13.614;2022-07-05T02:32:32;18.70;99.90
5264;DHT22;2654;47.958;13.614;2022-07-05T02:35:04;18.70;99.90
5264;DHT22;2654;47.958;13.614;2022-07-05T02:37:39;18.70;99.90
5264;DHT22;2654;47.958;13.614;2022-07-05T02:40:21;18.90;99.90
5264;DHT22;2654;47.958;13.614;2022-07-05T02:42:49;18.60;99.90
5264;DHT22;2654;47.958;13.614;2022-07-05T02:45:16;18.60;99.90
5264;DHT22;2654;47.958;13.614;2022-07-05T02:47:51;18.60;99.90
5264;DHT22;2654;47.958;13.614;2022-07-05T02:50:39;18.60;99.90
5264;DHT22;2654;47.958;13.614;2022-07-05T02:53:07;18.70;99.90
5264;DHT22;2654;47.958;13.614;2022-07-05T02:55:47;18.60;99.90
5264;DHT22;2654;47.958;13.614;2022-07-05T02:58:17;18.70;99.90
5264;DHT22;2654;47.958;13.614;2022-07-05T03:00:45;18.80;99.90
5264;DHT22;2654;47.958;13.614;2022-07-05T03:03:14;18.70;99.90
5264;DHT22;2654;47.958;13.614;2022-07-05T03:05:44;18.60;99.90
5264;DHT22;2654;47.958;13.614;2022-07-05T03:08:12;18.60;99.90
5264;DHT22;2654;47.958;13.614;2022-07-05T03:11:10;18.60;99.90
5264;DHT22;2654;47.958;13.614;2022-07-05T03:13:39;18.90;99.90
5264;DHT22;2654;47.958;13.614;2022-07-05T03:16:07;18.90;99.90
5264;DHT22;2654;47.958;13.614;2022-07-05T03:18:36;18.90;99.90
5264;DHT22;2654;47.958;13.614;2022-07-05T03:21:22;19.00;99.90
5264;DHT22;2654;47.958;13.614;2022-07-05T03:23:50;19.00;99.90
5264;DHT22;2654;47.958;13.614;2022-07-05T03:26:32;19.00;99.90
5264;DHT22;2654;47.958;13.614;2022-07-05T03:29:08;19.10;99.90
5264;DHT22;2654;47.958;13.614;2022-07-05T03:31:37;19.10;99.90
5264;DHT22;2654;47.958;13.614;2022-07-05T03:34:06;19.10;99.90
5264;DHT22;2654;47.958;13.614;2022-07-05T03:36:35;19.10;99.90
5264;DHT22;2654;47.958;13.614;2022-07-05T03:39:05;19.10;99.90
5264;DHT22;2654;47.958;13.614;2022-07-05T03:41:36;19.10;99.90
5264;DHT22;2654;47.958;13.614;2022-07-05T03:44:04;19.10;61.80
5264;DHT22;2654;47.958;13.614;2022-07-05T03:46:39;19.20;58.90
5264;DHT22;2654;47.958;13.614;2022-07-05T03:49:12;19.10;58.90
5264;DHT22;2654;47.958;13.614;2022-07-05T03:51:48;19.10;54.70
5264;DHT22;2654;47.958;13.614;2022-07-05T03:54:17;19.10;49.00
5264;DHT22;2654;47.958;13.614;2022-07-05T03:56:47;19.20;66.80
5264;DHT22;2654;47.958;13.614;2022-07-05T03:59:14;19.20;77.00
5264;DHT22;2654;47.958;13.614;2022-07-05T04:01:43;19.20;88.80
5264;DHT22;2654;47.958;13.614;2022-07-05T04:04:10;19.30;92.80
5264;DHT22;2654;47.958;13.614;2022-07-05T04:06:57;19.30;86.00
5264;DHT22;2654;47.958;13.614;2022-07-05T04:09:25;19.30;77.70
5264;DHT22;2654;47.958;13.614;2022-07-05T04:11:57;19.30;87.30
5264;DHT22;2654;47.958;13.614;2022-07-05T04:14:28;19.30;92.20
5264;DHT22;2654;47.958;13.614;2022-07-05T04:16:56;19.20;99.90
5264;DHT22;2654;47.958;13.614;2022-07-05T04:19:23;19.20;99.90
5264;DHT22;2654;47.958;13.614;2022-07-05T04:21:53;19.30;99.90
5264;DHT22;2654;47.958;13.614;2022-07-05T04:24:23;19.30;99.90
5264;DHT22;2654;47.958;13.614;2022-07-05T04:26:51;19.30;99.90
5264;DHT22;2654;47.958;13.614;2022-07-05T04:29:21;19.50;99.90
5264;DHT22;2654;47.958;13.614;2022-07-05T04:31:49;19.50;99.90
5264;DHT22;2654;47.958;13.614;2022-07-05T04:34:29;19.50;93.00
5264;DHT22;2654;47.958;13.614;2022-07-05T04:37:01;19.60;72.20
5264;DHT22;2654;47.958;13.614;2022-07-05T04:39:30;19.40;99.90
5264;DHT22;2654;47.958;13.614;2022-07-05T04:41:58;19.50;96.00
5264;DHT22;2654;47.958;13.614;2022-07-05T04:44:33;19.50;90.10
5264;DHT22;2654;47.958;13.614;2022-07-05T04:47:00;19.60;65.70
5264;DHT22;2654;47.958;13.614;2022-07-05T04:49:29;19.60;65.90
5264;DHT22;2654;47.958;13.614;2022-07-05T04:52:02;19.70;71.50
5264;DHT22;2654;47.958;13.614;2022-07-05T04:54:31;19.80;75.80
5264;DHT22;2654;47.958;13.614;2022-07-05T04:57:01;19.70;79.10
5264;DHT22;2654;47.958;13.614;2022-07-05T04:59:33;19.70;66.00
5264;DHT22;2654;47.958;13.614;2022-07-05T05:02:01;19.80;66.00
5264;DHT22;2654;47.958;13.614;2022-07-05T05:04:35;19.70;77.90
5264;DHT22;2654;47.958;13.614;2022-07-05T05:07:04;19.70;85.30
5264;DHT22;2654;47.958;13.614;2022-07-05T05:09:34;19.70;81.40
5264;DHT22;2654;47.958;13.614;2022-07-05T05:12:02;19.70;91.70
5264;DHT22;2654;47.958;13.614;2022-07-05T05:14:30;19.70;99.30
5264;DHT22;2654;47.958;13.614;2022-07-05T05:17:01;19.70;99.50
5264;DHT22;2654;47.958;13.614;2022-07-05T05:19:32;19.60;77.10
5264;DHT22;2654;47.958;13.614;2022-07-05T05:22:08;19.50;77.10
5264;DHT22;2654;47.958;13.614;2022-07-05T05:24:57;19.60;67.20
5264;DHT22;2654;47.958;13.614;2022-07-05T05:27:32;19.60;49.80
5264;DHT22;2654;47.958;13.614;2022-07-05T05:29:59;19.60;66.90
5264;DHT22;2654;47.958;13.614;2022-07-05T05:32:34;19.60;96.50
5264;DHT22;2654;47.958;13.614;2022-07-05T05:35:02;19.70;84.40
5264;DHT22;2654;47.958;13.614;2022-07-05T05:37:30;19.60;89.40
5264;DHT22;2654;47.958;13.614;2022-07-05T05:39:59;19.70;83.80
5264;DHT22;2654;47.958;13.614;2022-07-05T05:42:45;19.70;82.80
5264;DHT22;2654;47.958;13.614;2022-07-05T05:45:42;19.80;80.80
5264;DHT22;2654;47.958;13.614;2022-07-05T05:48:12;19.80;77.70
5264;DHT22;2654;47.958;13.614;2022-07-05T05:50:46;19.80;92.00
5264;DHT22;2654;47.958;13.614;2022-07-05T05:53:21;19.80;95.70
5264;DHT22;2654;47.958;13.614;2022-07-05T05:55:51;19.80;97.60
5264;DHT22;2654;47.958;13.614;2022-07-05T05:58:22;19.90;96.40
5264;DHT22;2654;47.958;13.614;2022-07-05T06:00:57;19.90;99.90
5264;DHT22;2654;47.958;13.614;2022-07-05T06:03:27;19.80;98.70
5264;DHT22;2654;47.958;13.614;2022-07-05T06:06:05;19.90;94.60
5264;DHT22;2654;47.958;13.614;2022-07-05T06:08:32;20.00;78.90
5264;DHT22;2654;47.958;13.614;2022-07-05T06:11:03;20.00;80.50
5264;DHT22;2654;47.958;13.614;2022-07-05T06:13:31;19.90;86.10
5264;DHT22;2654;47.958;13.614;2022-07-05T06:16:04;20.00;93.00
5264;DHT22;2654;47.958;13.614;2022-07-05T06:18:36;20.00;38.70
5264;DHT22;2654;47.958;13.614;2022-07-05T06:21:04;20.00;39.20
5264;DHT22;2654;47.958;13.614;2022-07-05T06:23:43;19.90;34.10
5264;DHT22;2654;47.958;13.614;2022-07-05T06:26:12;20.00;45.30
5264;DHT22;2654;47.958;13.614;2022-07-05T06:28:48;20.00;58.80
5264;DHT22;2654;47.958;13.614;2022-07-05T06:31:16;20.10;64.70
5264;DHT22;2654;47.958;13.614;2022-07-05T06:33:50;20.10;60.40
5264;DHT22;2654;47.958;13.614;2022-07-05T06:36:21;20.30;81.40
5264;DHT22;2654;47.958;13.614;2022-07-05T06:38:54;20.40;56.80
5264;DHT22;2654;47.958;13.614;2022-07-05T06:41:21;20.50;43.10
5264;DHT22;2654;47.958;13.614;2022-07-05T06:43:54;20.50;34.10
5264;DHT22;2654;47.958;13.614;2022-07-05T06:46:30;20.70;50.50
5264;DHT22;2654;47.958;13.614;2022-07-05T06:49:01;20.70;17.90
5264;DHT22;2654;47.958;13.614;2022-07-05T06:51:28;20.80;1.00
5264;DHT22;2654;47.958;13.614;2022-07-05T06:54:15;20.80;1.00
5264;DHT22;2654;47.958;13.614;2022-07-05T06:56:54;20.90;1.00
5264;DHT22;2654;47.958;13.614;2022-07-05T06:59:23;21.00;1.00
5264;DHT22;2654;47.958;13.614;2022-07-05T07:01:51;21.10;1.00
5264;DHT22;2654;47.958;13.614;2022-07-05T07:04:20;21.50;1.00
5264;DHT22;2654;47.958;13.614;2022-07-05T07:06:48;21.50;1.00
5264;DHT22;2654;47.958;13.614;2022-07-05T07:09:16;21.40;1.00
5264;DHT22;2654;47.958;13.614;2022-07-05T07:11:47;21.40;1.00
5264;DHT22;2654;47.958;13.614;2022-07-05T07:14:15;21.50;1.00
5264;DHT22;2654;47.958;13.614;2022-07-05T07:16:53;21.70;42.10
5264;DHT22;2654;47.958;13.614;2022-07-05T07:19:29;21.40;1.00
5264;DHT22;2654;47.958;13.614;2022-07-05T07:21:57;21.30;99.90
5264;DHT22;2654;47.958;13.614;2022-07-05T07:24:25;21.20;1.00
5264;DHT22;2654;47.958;13.614;2022-07-05T07:26:58;21.20;99.90
5264;DHT22;2654;47.958;13.614;2022-07-05T07:29:36;21.30;99.90
5264;DHT22;2654;47.958;13.614;2022-07-05T07:32:05;21.30;1.00
5264;DHT22;2654;47.958;13.614;2022-07-05T07:34:40;21.40;1.00
5264;DHT22;2654;47.958;13.614;2022-07-05T07:37:07;21.40;99.90
5264;DHT22;2654;47.958;13.614;2022-07-05T07:39:40;21.30;99.90
5264;DHT22;2654;47.958;13.614;2022-07-05T07:42:08;21.30;1.00
5264;DHT22;2654;47.958;13.614;2022-07-05T07:44:46;21.40;1.00
5264;DHT22;2654;47.958;13.614;2022-07-05T07:47:17;21.60;99.90
5264;DHT22;2654;47.958;13.614;2022-07-05T07:49:48;21.70;1.00
5264;DHT22;2654;47.958;13.614;2022-07-05T07:52:27;21.70;1.00
5264;DHT22;2654;47.958;13.614;2022-07-05T07:54:56;21.80;1.00
5264;DHT22;2654;47.958;13.614;2022-07-05T07:57:29;21.80;99.90
5264;DHT22;2654;47.958;13.614;2022-07-05T07:59:58;21.90;1.00
5264;DHT22;2654;47.958;13.614;2022-07-05T08:02:31;21.90;1.00
5264;DHT22;2654;47.958;13.614;2022-07-05T08:05:14;22.10;99.90
5264;DHT22;2654;47.958;13.614;2022-07-05T08:07:43;22.10;1.00
5264;DHT22;2654;47.958;13.614;2022-07-05T08:10:17;22.20;99.90
5264;DHT22;2654;47.958;13.614;2022-07-05T08:15:42;22.30;99.90
5264;DHT22;2654;47.958;13.614;2022-07-05T08:21:22;22.70;1.00
5264;DHT22;2654;47.958;13.614;2022-07-05T08:24:01;22.90;99.90
5264;DHT22;2654;47.958;13.614;2022-07-05T08:26:31;23.00;1.00
5264;DHT22;2654;47.958;13.614;2022-07-05T08:28:59;22.90;99.90
5264;DHT22;2654;47.958;13.614;2022-07-05T08:31:28;22.90;1.00
5264;DHT22;2654;47.958;13.614;2022-07-05T08:33:59;22.90;1.00
5264;DHT22;2654;47.958;13.614;2022-07-05T08:36:28;22.80;1.00
5264;DHT22;2654;47.958;13.614;2022-07-05T08:38:56;22.80;1.00
5264;DHT22;2654;47.958;13.614;2022-07-05T08:41:38;22.70;1.00
5264;DHT22;2654;47.958;13.614;2022-07-05T08:44:34;22.80;66.90
5264;DHT22;2654;47.958;13.614;2022-07-05T08:47:09;22.90;1.00
5264;DHT22;2654;47.958;13.614;2022-07-05T08:49:38;22.80;1.00
5264;DHT22;2654;47.958;13.614;2022-07-05T08:52:11;22.80;1.00
5264;DHT22;2654;47.958;13.614;2022-07-05T08:54:39;23.00;1.00
5264;DHT22;2654;47.958;13.614;2022-07-05T08:57:07;23.20;1.00
5264;DHT22;2654;47.958;13.614;2022-07-05T08:59:34;23.30;1.00
5264;DHT22;2654;47.958;13.614;2022-07-05T09:02:13;23.20;1.00
5264;DHT22;2654;47.958;13.614;2022-07-05T09:04:50;23.40;1.00
5264;DHT22;2654;47.958;13.614;2022-07-05T09:07:32;23.40;99.90
5264;DHT22;2654;47.958;13.614;2022-07-05T09:10:02;23.40;1.00
5264;DHT22;2654;47.958;13.614;2022-07-05T09:12:31;23.50;99.90
5264;DHT22;2654;47.958;13.614;2022-07-05T09:15:05;23.60;99.90
5264;DHT22;2654;47.958;13.614;2022-07-05T09:17:41;23.60;72.10
5264;DHT22;2654;47.958;13.614;2022-07-05T09:20:20;23.70;99.90
5264;DHT22;2654;47.958;13.614;2022-07-05T09:23:24;23.80;93.30
5264;DHT22;2654;47.958;13.614;2022-07-05T09:26:01;23.60;1.00
5264;DHT22;2654;47.958;13.614;2022-07-05T09:28:31;23.50;19.30
5264;DHT22;2654;47.958;13.614;2022-07-05T09:30:59;23.40;99.90
5264;DHT22;2654;47.958;13.614;2022-07-05T09:33:29;23.50;52.50
5264;DHT22;2654;47.958;13.614;2022-07-05T09:36:00;23.70;99.90
5264;DHT22;2654;47.958;13.614;2022-07-05T09:38:57;24.00;1.00
5264;DHT22;2654;47.958;13.614;2022-07-05T09:41:26;24.20;1.00
5264;DHT22;2654;47.958;13.614;2022-07-05T09:44:00;24.70;1.00
5264;DHT22;2654;47.958;13.614;2022-07-05T09:46:29;24.80;1.00
5264;DHT22;2654;47.958;13.614;2022-07-05T09:49:00;24.90;1.00
5264;DHT22;2654;47.958;13.614;2022-07-05T09:51:47;24.80;1.00
5264;DHT22;2654;47.958;13.614;2022-07-05T09:54:18;24.70;1.00
5264;DHT22;2654;47.958;13.614;2022-07-05T09:56:47;24.40;1.00
5264;DHT22;2654;47.958;13.614;2022-07-05T09:59:16;24.50;1.00
5264;DHT22;2654;47.958;13.614;2022-07-05T10:01:47;24.50;1.00
5264;DHT22;2654;47.958;13.614;2022-07-05T10:04:43;24.70;1.00
5264;DHT22;2654;47.958;13.614;2022-07-05T10:07:28;24.80;99.90
5264;DHT22;2654;47.958;13.614;2022-07-05T10:09:59;24.60;99.90
5264;DHT22;2654;47.958;13.614;2022-07-05T10:12:27;24.40;99.90
5264;DHT22;2654;47.958;13.614;2022-07-05T10:15:03;24.50;99.90
5264;DHT22;2654;47.958;13.614;2022-07-05T10:17:34;24.70;99.90
5264;DHT22;2654;47.958;13.614;2022-07-05T10:20:03;24.80;1.00
5264;DHT22;2654;47.958;13.614;2022-07-05T10:22:43;24.90;99.90
5264;DHT22;2654;47.958;13.614;2022-07-05T10:25:18;24.90;99.90
5264;DHT22;2654;47.958;13.614;2022-07-05T10:27:55;25.00;99.90
5264;DHT22;2654;47.958;13.614;2022-07-05T10:30:33;24.80;99.90
5264;DHT22;2654;47.958;13.614;2022-07-05T10:33:11;24.80;99.90
5264;DHT22;2654;47.958;13.614;2022-07-05T10:35:56;24.80;99.90
5264;DHT22;2654;47.958;13.614;2022-07-05T10:38:39;24.60;99.90
5264;DHT22;2654;47.958;13.614;2022-07-05T10:41:33;24.60;99.90
5264;DHT22;2654;47.958;13.614;2022-07-05T10:44:02;24.70;99.90
5264;DHT22;2654;47.958;13.614;2022-07-05T10:46:38;24.70;99.90
5264;DHT22;2654;47.958;13.614;2022-07-05T10:49:13;24.80;99.90
5264;DHT22;2654;47.958;13.614;2022-07-05T10:51:47;24.80;99.90
5264;DHT22;2654;47.958;13.614;2022-07-05T10:54:18;25.10;99.90
5264;DHT22;2654;47.958;13.614;2022-07-05T11:00:11;25.30;99.90
5264;DHT22;2654;47.958;13.614;2022-07-05T11:03:05;25.50;99.90
5264;DHT22;2654;47.958;13.614;2022-07-05T11:05:35;25.50;99.90
5264;DHT22;2654;47.958;13.614;2022-07-05T11:08:03;25.60;99.90
5264;DHT22;2654;47.958;13.614;2022-07-05T11:11:09;25.70;99.90
5264;DHT22;2654;47.958;13.614;2022-07-05T11:13:39;25.90;99.90
5264;DHT22;2654;47.958;13.614;2022-07-05T11:16:25;25.70;99.90
5264;DHT22;2654;47.958;13.614;2022-07-05T11:19:06;25.80;99.90
5264;DHT22;2654;47.958;13.614;2022-07-05T11:22:00;25.90;99.90
5264;DHT22;2654;47.958;13.614;2022-07-05T11:24:45;26.00;99.90
5264;DHT22;2654;47.958;13.614;2022-07-05T11:27:21;26.00;99.90
5264;DHT22;2654;47.958;13.614;2022-07-05T11:29:55;25.90;99.90
5264;DHT22;2654;47.958;13.614;2022-07-05T11:32:36;25.70;99.90
5264;DHT22;2654;47.958;13.614;2022-07-05T11:35:16;25.80;99.90
5264;DHT22;2654;47.958;13.614;2022-07-05T11:38:02;26.00;99.90
5264;DHT22;2654;47.958;13.614;2022-07-05T11:40:39;26.40;99.90
5264;DHT22;2654;47.958;13.614;2022-07-05T11:43:11;26.20;99.90
5264;DHT22;2654;47.958;13.614;2022-07-05T11:45:47;26.10;99.90
5264;DHT22;2654;47.958;13.614;2022-07-05T11:48:18;26.20;99.90
5264;DHT22;2654;47.958;13.614;2022-07-05T11:50:46;26.10;99.90
5264;DHT22;2654;47.958;13.614;2022-07-05T11:53:25;26.00;99.90
5264;DHT22;2654;47.958;13.614;2022-07-05T11:55:54;26.20;99.90
5264;DHT22;2654;47.958;13.614;2022-07-05T11:58:31;26.40;99.90
5264;DHT22;2654;47.958;13.614;2022-07-05T12:01:03;26.30;99.90
5264;DHT22;2654;47.958;13.614;2022-07-05T12:03:43;26.40;99.90
5264;DHT22;2654;47.958;13.614;2022-07-05T12:06:19;26.40;99.90
5264;DHT22;2654;47.958;13.614;2022-07-05T12:08:46;26.50;99.90
5264;DHT22;2654;47.958;13.614;2022-07-05T12:11:15;27.00;99.90
5264;DHT22;2654;47.958;13.614;2022-07-05T12:14:00;27.00;99.90
5264;DHT22;2654;47.958;13.614;2022-07-05T12:16:31;27.00;99.90
5264;DHT22;2654;47.958;13.614;2022-07-05T12:19:08;26.70;99.90
5264;DHT22;2654;47.958;13.614;2022-07-05T12:21:36;26.50;99.90
5264;DHT22;2654;47.958;13.614;2022-07-05T12:24:05;26.20;99.90
5264;DHT22;2654;47.958;13.614;2022-07-05T12:26:42;26.10;99.90
5264;DHT22;2654;47.958;13.614;2022-07-05T12:29:10;26.00;99.90
5264;DHT22;2654;47.958;13.614;2022-07-05T12:31:37;26.00;99.90
5264;DHT22;2654;47.958;13.614;2022-07-05T12:34:17;25.90;99.90
5264;DHT22;2654;47.958;13.614;2022-07-05T12:36:48;25.80;99.90
5264;DHT22;2654;47.958;13.614;2022-07-05T12:39:25;25.40;99.90
5264;DHT22;2654;47.958;13.614;2022-07-05T12:41:53;25.20;99.90
5264;DHT22;2654;47.958;13.614;2022-07-05T12:44:30;24.90;99.90
5264;DHT22;2654;47.958;13.614;2022-07-05T12:47:03;25.20;99.90
5264;DHT22;2654;47.958;13.614;2022-07-05T12:49:55;25.50;99.90
5264;DHT22;2654;47.958;13.614;2022-07-05T12:52:29;25.60;99.90
5264;DHT22;2654;47.958;13.614;2022-07-05T12:55:10;25.60;99.90
5264;DHT22;2654;47.958;13.614;2022-07-05T12:58:00;25.50;99.90
5264;DHT22;2654;47.958;13.614;2022-07-05T13:00:35;25.80;99.90
5264;DHT22;2654;47.958;13.614;2022-07-05T13:03:09;26.10;99.90
5264;DHT22;2654;47.958;13.614;2022-07-05T13:05:42;26.40;99.90
5264;DHT22;2654;47.958;13.614;2022-07-05T13:08:10;26.70;99.90
5264;DHT22;2654;47.958;13.614;2022-07-05T13:10:46;27.00;99.90
5264;DHT22;2654;47.958;13.614;2022-07-05T13:13:14;26.90;99.90
5264;DHT22;2654;47.958;13.614;2022-07-05T13:15:46;26.70;99.90
5264;DHT22;2654;47.958;13.614;2022-07-05T13:18:24;26.90;99.90
5264;DHT22;2654;47.958;13.614;2022-07-05T13:20:53;27.20;99.90
5264;DHT22;2654;47.958;13.614;2022-07-05T13:23:22;27.50;99.90
5264;DHT22;2654;47.958;13.614;2022-07-05T13:25:52;27.80;99.90
5264;DHT22;2654;47.958;13.614;2022-07-05T13:28:19;27.90;99.90
5264;DHT22;2654;47.958;13.614;2022-07-05T13:30:48;28.20;99.90
5264;DHT22;2654;47.958;13.614;2022-07-05T13:33:15;28.10;99.90
5264;DHT22;2654;47.958;13.614;2022-07-05T13:35:45;27.90;99.90
5264;DHT22;2654;47.958;13.614;2022-07-05T13:38:17;27.90;99.90
5264;DHT22;2654;47.958;13.614;2022-07-05T13:40:46;27.70;99.90
5264;DHT22;2654;47.958;13.614;2022-07-05T13:43:21;27.40;99.90
5264;DHT22;2654;47.958;13.614;2022-07-05T13:45:56;27.60;99.90
5264;DHT22;2654;47.958;13.614;2022-07-05T13:48:47;27.50;99.90
5264;DHT22;2654;47.958;13.614;2022-07-05T13:51:16;27.60;99.90
5264;DHT22;2654;47.958;13.614;2022-07-05T13:53:46;27.70;99.90
5264;DHT22;2654;47.958;13.614;2022-07-05T13:56:20;27.80;99.90
5264;DHT22;2654;47.958;13.614;2022-07-05T13:58:55;27.80;99.90
5264;DHT22;2654;47.958;13.614;2022-07-05T14:01:25;27.80;99.90
5264;DHT22;2654;47.958;13.614;2022-07-05T14:03:57;27.60;99.90
5264;DHT22;2654;47.958;13.614;2022-07-05T14:06:26;27.40;99.90
5264;DHT22;2654;47.958;13.614;2022-07-05T14:09:02;27.20;99.90
5264;DHT22;2654;47.958;13.614;2022-07-05T14:11:30;26.90;99.90
5264;DHT22;2654;47.958;13.614;2022-07-05T14:14:09;26.50;99.90
5264;DHT22;2654;47.958;13.614;2022-07-05T14:20:24;26.20;99.90
5264;DHT22;2654;47.958;13.614;2022-07-05T14:22:52;26.00;99.90
5264;DHT22;2654;47.958;13.614;2022-07-05T14:25:40;25.80;99.90
5264;DHT22;2654;47.958;13.614;2022-07-05T14:28:12;25.80;99.90
5264;DHT22;2654;47.958;13.614;2022-07-05T14:30:42;25.70;99.90
5264;DHT22;2654;47.958;13.614;2022-07-05T14:33:18;25.70;99.90
5264;DHT22;2654;47.958;13.614;2022-07-05T14:35:47;25.80;99.90
5264;DHT22;2654;47.958;13.614;2022-07-05T14:38:15;25.70;99.90
5264;DHT22;2654;47.958;13.614;2022-07-05T14:40:44;25.50;99.90
5264;DHT22;2654;47.958;13.614;2022-07-05T14:43:13;25.20;99.90
5264;DHT22;2654;47.958;13.614;2022-07-05T14:45:41;24.90;99.90
5264;DHT22;2654;47.958;13.614;2022-07-05T14:48:22;24.80;99.90
5264;DHT22;2654;47.958;13.614;2022-07-05T14:50:50;25.00;99.90
5264;DHT22;2654;47.958;13.614;2022-07-05T14:53:29;25.00;99.90
5264;DHT22;2654;47.958;13.614;2022-07-05T14:55:58;24.60;99.90
5264;DHT22;2654;47.958;13.614;2022-07-05T14:58:35;24.90;99.90
5264;DHT22;2654;47.958;13.614;2022-07-05T15:01:03;25.40;99.90
5264;DHT22;2654;47.958;13.614;2022-07-05T15:03:31;25.80;99.90
5264;DHT22;2654;47.958;13.614;2022-07-05T15:06:01;25.40;99.90
5264;DHT22;2654;47.958;13.614;2022-07-05T15:08:29;25.20;99.90
5264;DHT22;2654;47.958;13.614;2022-07-05T15:11:09;25.50;99.90
5264;DHT22;2654;47.958;13.614;2022-07-05T15:13:44;25.80;99.90
5264;DHT22;2654;47.958;13.614;2022-07-05T15:16:13;26.30;99.90
5264;DHT22;2654;47.958;13.614;2022-07-05T15:18:41;26.50;99.90
5264;DHT22;2654;47.958;13.614;2022-07-05T15:21:09;27.00;99.90
5264;DHT22;2654;47.958;13.614;2022-07-05T15:23:44;27.40;99.90
5264;DHT22;2654;47.958;13.614;2022-07-05T15:26:19;27.50;99.90
5264;DHT22;2654;47.958;13.614;2022-07-05T15:28:47;27.60;99.90
5264;DHT22;2654;47.958;13.614;2022-07-05T15:31:14;27.50;99.90
5264;DHT22;2654;47.958;13.614;2022-07-05T15:33:49;27.40;99.90
5264;DHT22;2654;47.958;13.614;2022-07-05T15:36:24;27.60;99.90
5264;DHT22;2654;47.958;13.614;2022-07-05T15:38:52;27.50;99.90
5264;DHT22;2654;47.958;13.614;2022-07-05T15:41:22;27.30;99.90
5264;DHT22;2654;47.958;13.614;2022-07-05T15:43:52;27.10;99.90
5264;DHT22;2654;47.958;13.614;2022-07-05T15:46:26;27.10;99.90
5264;DHT22;2654;47.958;13.614;2022-07-05T15:49:14;27.00;99.90
5264;DHT22;2654;47.958;13.614;2022-07-05T15:51:43;26.90;99.90
5264;DHT22;2654;47.958;13.614;2022-07-05T15:54:12;26.60;99.90
5264;DHT22;2654;47.958;13.614;2022-07-05T15:56:49;26.40;99.90
5264;DHT22;2654;47.958;13.614;2022-07-05T15:59:26;26.20;99.90
5264;DHT22;2654;47.958;13.614;2022-07-05T16:02:00;26.00;99.90
5264;DHT22;2654;47.958;13.614;2022-07-05T16:04:30;26.00;99.90
5264;DHT22;2654;47.958;13.614;2022-07-05T16:07:04;26.00;99.90
5264;DHT22;2654;47.958;13.614;2022-07-05T16:09:41;25.90;99.90
5264;DHT22;2654;47.958;13.614;2022-07-05T16:12:16;25.80;99.90
5264;DHT22;2654;47.958;13.614;2022-07-05T16:14:46;25.70;99.90
5264;DHT22;2654;47.958;13.614;2022-07-05T16:17:24;25.50;99.90
5264;DHT22;2654;47.958;13.614;2022-07-05T16:19:58;25.50;99.90
5264;DHT22;2654;47.958;13.614;2022-07-05T16:22:32;25.50;99.90
5264;DHT22;2654;47.958;13.614;2022-07-05T16:25:06;25.30;99.90
5264;DHT22;2654;47.958;13.614;2022-07-05T16:27:38;25.30;99.90
5264;DHT22;2654;47.958;13.614;2022-07-05T16:30:09;25.40;99.90
5264;DHT22;2654;47.958;13.614;2022-07-05T16:32:39;25.50;99.90
5264;DHT22;2654;47.958;13.614;2022-07-05T16:35:20;25.50;99.90
5264;DHT22;2654;47.958;13.614;2022-07-05T16:37:49;25.30;99.90
5264;DHT22;2654;47.958;13.614;2022-07-05T16:40:26;25.30;99.90
5264;DHT22;2654;47.958;13.614;2022-07-05T16:43:03;25.20;99.90